createdAt,value
2022-10-28T00:00:52.609Z,20.70
2022-10-28T00:03:20.613Z,20.70
2022-10-28T00:05:49.845Z,20.60
2022-10-28T00:08:17.752Z,20.60
2022-10-28T00:10:45.639Z,20.60
2022-10-28T00:13:13.531Z,20.60
2022-10-28T00:15:41.415Z,20.60
2022-10-28T00:18:09.306Z,20.60
2022-10-28T00:20:37.166Z,20.60
2022-10-28T00:23:06.360Z,20.60
2022-10-28T00:25:34.205Z,20.60
2022-10-28T00:28:02.110Z,20.60
2022-10-28T00:32:58.818Z,20.60
2022-10-28T00:35:26.725Z,20.60
2022-10-28T00:37:54.814Z,20.60
2022-10-28T00:40:24.197Z,20.60
2022-10-28T00:42:52.408Z,20.60
2022-10-28T00:45:20.529Z,20.60
2022-10-28T00:47:52.548Z,20.50
2022-10-28T00:50:34.270Z,20.50
2022-10-28T00:53:06.043Z,20.50
2022-10-28T00:55:36.553Z,20.50
2022-10-28T00:58:06.458Z,20.50
2022-10-28T01:00:34.523Z,20.50
2022-10-28T01:03:02.737Z,20.50
2022-10-28T01:05:32.271Z,20.50
2022-10-28T01:08:02.671Z,20.50
2022-10-28T01:10:52.657Z,20.50
2022-10-28T01:13:34.484Z,20.50
2022-10-28T01:16:11.266Z,20.50
2022-10-28T01:18:46.963Z,20.50
2022-10-28T01:21:44.457Z,20.50
2022-10-28T01:24:26.338Z,20.40
2022-10-28T01:27:31.496Z,20.50
2022-10-28T01:30:09.344Z,20.50
2022-10-28T01:32:48.524Z,20.40
2022-10-28T01:35:23.231Z,20.40
2022-10-28T01:38:03.194Z,20.40
2022-10-28T01:40:34.866Z,20.40
2022-10-28T01:43:11.122Z,20.40
2022-10-28T01:45:45.703Z,20.40
2022-10-28T01:48:18.716Z,20.40
2022-10-28T01:50:52.189Z,20.40
2022-10-28T01:53:25.627Z,20.50
2022-10-28T01:55:58.782Z,20.40
2022-10-28T01:58:31.564Z,20.40
2022-10-28T02:01:01.759Z,20.40
2022-10-28T02:03:31.054Z,20.40
2022-10-28T02:06:00.325Z,20.40
2022-10-28T02:08:51.081Z,20.40
2022-10-28T02:11:35.529Z,20.40
2022-10-28T02:14:15.684Z,20.40
2022-10-28T02:16:50.305Z,20.40
2022-10-28T02:19:28.340Z,20.40
2022-10-28T02:22:10.553Z,20.40
2022-10-28T02:24:46.964Z,20.40
2022-10-28T02:27:22.401Z,20.40
2022-10-28T02:29:56.730Z,20.40
2022-10-28T02:32:29.243Z,20.40
2022-10-28T02:35:02.091Z,20.40
2022-10-28T02:37:32.220Z,20.40
2022-10-28T02:40:03.650Z,20.40
2022-10-28T02:42:36.044Z,20.30
2022-10-28T02:45:15.607Z,20.30
2022-10-28T02:47:48.309Z,20.30
2022-10-28T02:50:21.393Z,20.40
2022-10-28T02:52:55.534Z,20.40
2022-10-28T02:55:29.077Z,20.40
2022-10-28T02:57:58.993Z,20.30
2022-10-28T03:00:26.962Z,20.30
2022-10-28T03:02:54.856Z,20.40
2022-10-28T03:05:24.126Z,20.30
2022-10-28T03:07:52.171Z,20.30
2022-10-28T03:10:20.240Z,20.30
2022-10-28T03:12:48.136Z,20.30
2022-10-28T03:15:16.162Z,20.30
2022-10-28T03:17:44.065Z,20.30
2022-10-28T03:20:12.717Z,20.30
2022-10-28T03:22:43.935Z,20.30
2022-10-28T03:25:12.175Z,20.30
2022-10-28T03:27:41.388Z,20.30
2022-10-28T03:30:10.373Z,20.30
2022-10-28T03:32:38.239Z,20.30
2022-10-28T03:35:07.421Z,20.30
2022-10-28T03:37:35.309Z,20.40
2022-10-28T03:40:07.848Z,20.40
2022-10-28T03:42:38.866Z,20.40
2022-10-28T03:45:10.045Z,20.40
2022-10-28T03:47:38.001Z,20.50
2022-10-28T03:50:06.340Z,20.50
2022-10-28T03:52:34.256Z,20.50
2022-10-28T03:55:02.123Z,20.50
2022-10-28T03:57:33.408Z,20.60
2022-10-28T04:00:01.339Z,20.60
2022-10-28T04:02:29.585Z,20.50
2022-10-28T04:04:57.460Z,20.60
2022-10-28T04:07:25.462Z,20.60
2022-10-28T04:09:53.312Z,20.60
2022-10-28T04:12:21.322Z,20.60
2022-10-28T04:14:50.557Z,20.60
2022-10-28T04:17:18.477Z,20.60
2022-10-28T04:19:46.309Z,20.60
2022-10-28T04:22:14.176Z,20.60
2022-10-28T04:24:42.034Z,20.60
2022-10-28T04:27:09.962Z,20.60
2022-10-28T04:29:37.909Z,20.60
2022-10-28T04:32:07.170Z,20.70
2022-10-28T04:34:35.041Z,20.70
2022-10-28T04:37:02.960Z,20.60
2022-10-28T04:39:30.824Z,20.60
2022-10-28T04:41:58.709Z,20.60
2022-10-28T04:44:26.549Z,20.70
2022-10-28T04:46:56.761Z,20.70
2022-10-28T04:49:25.988Z,20.70
2022-10-28T04:51:53.867Z,20.70
2022-10-28T04:54:21.781Z,20.70
2022-10-28T04:56:49.638Z,20.70
2022-10-28T04:59:17.575Z,20.60
2022-10-28T05:01:45.575Z,20.70
2022-10-28T05:04:13.737Z,20.70
2022-10-28T05:06:43.046Z,20.70
2022-10-28T05:09:11.011Z,20.70
2022-10-28T05:11:38.988Z,20.70
2022-10-28T05:14:06.917Z,20.70
2022-10-28T05:16:34.764Z,20.70
2022-10-28T05:19:02.744Z,20.70
2022-10-28T05:21:30.641Z,20.60
2022-10-28T05:23:59.877Z,20.70
2022-10-28T05:26:27.810Z,20.70
2022-10-28T05:28:55.708Z,20.70
2022-10-28T05:31:23.616Z,20.70
2022-10-28T05:33:51.533Z,20.70
2022-10-28T05:36:19.401Z,20.70
2022-10-28T05:38:47.286Z,20.70
2022-10-28T05:41:16.539Z,20.70
2022-10-28T05:43:44.405Z,20.70
2022-10-28T05:46:12.424Z,20.70
2022-10-28T05:48:40.264Z,20.70
2022-10-28T05:51:08.129Z,20.70
2022-10-28T05:53:36.021Z,20.70
2022-10-28T05:56:04.010Z,20.80
2022-10-28T05:58:33.233Z,20.80
2022-10-28T06:01:01.120Z,20.80
2022-10-28T06:03:31.218Z,20.80
2022-10-28T06:05:59.832Z,20.80
2022-10-28T06:08:28.252Z,20.80
2022-10-28T06:10:54.932Z,20.80
2022-10-28T06:13:23.069Z,20.80
2022-10-28T06:15:53.364Z,20.70
2022-10-28T06:18:21.731Z,20.80
2022-10-28T06:20:54.271Z,20.80
2022-10-28T06:23:22.653Z,20.70
2022-10-28T06:25:50.670Z,20.70
2022-10-28T06:28:18.586Z,20.70
2022-10-28T06:30:46.481Z,20.70
2022-10-28T06:33:15.700Z,20.70
2022-10-28T06:35:43.609Z,20.70
2022-10-28T06:38:11.569Z,20.70
2022-10-28T06:40:39.519Z,20.70
2022-10-28T06:43:10.963Z,20.70
2022-10-28T06:45:38.905Z,20.70
2022-10-28T06:48:08.579Z,20.70
2022-10-28T06:50:38.318Z,20.70
2022-10-28T06:53:06.571Z,20.70
2022-10-28T06:55:34.448Z,20.80
2022-10-28T06:58:03.347Z,20.80
2022-10-28T07:00:33.186Z,20.80
2022-10-28T07:03:01.444Z,20.80
2022-10-28T07:05:29.763Z,20.70
2022-10-28T07:07:59.010Z,20.80
2022-10-28T07:10:26.941Z,20.80
2022-10-28T07:12:55.462Z,20.80
2022-10-28T07:15:23.556Z,20.80
2022-10-28T07:17:54.192Z,20.80
2022-10-28T07:20:22.087Z,20.80
2022-10-28T07:22:56.183Z,20.80
2022-10-28T07:25:25.620Z,20.80
2022-10-28T07:27:53.786Z,20.80
2022-10-28T07:30:22.033Z,20.80
2022-10-28T07:32:49.940Z,20.80
2022-10-28T07:35:17.962Z,20.80
2022-10-28T07:37:46.569Z,20.80
2022-10-28T07:40:14.994Z,20.80
2022-10-28T07:42:44.283Z,20.80
2022-10-28T07:45:12.143Z,20.80
2022-10-28T07:47:40.367Z,20.80
2022-10-28T07:50:09.660Z,20.80
2022-10-28T07:52:38.348Z,20.80
2022-10-28T07:55:07.730Z,20.90
2022-10-28T07:57:36.034Z,20.80
2022-10-28T08:00:07.174Z,20.60
2022-10-28T08:02:35.068Z,20.60
2022-10-28T08:05:02.986Z,20.60
2022-10-28T08:07:33.730Z,20.60
2022-10-28T08:10:04.454Z,20.50
2022-10-28T08:12:32.389Z,20.50
2022-10-28T08:15:00.251Z,20.40
2022-10-28T08:17:29.623Z,20.40
2022-10-28T08:19:57.498Z,20.40
2022-10-28T08:22:25.530Z,20.40
2022-10-28T08:24:53.391Z,20.40
2022-10-28T08:27:21.264Z,20.50
2022-10-28T08:29:49.143Z,20.40
2022-10-28T08:32:17.007Z,20.50
2022-10-28T08:34:46.245Z,20.50
2022-10-28T08:37:16.084Z,20.50
2022-10-28T08:39:44.036Z,20.50
2022-10-28T08:42:27.311Z,20.50
2022-10-28T08:45:06.405Z,20.60
2022-10-28T08:47:45.506Z,20.60
2022-10-28T08:50:18.192Z,20.70
2022-10-28T08:52:53.926Z,20.70
2022-10-28T08:55:28.577Z,20.70
2022-10-28T08:57:58.293Z,20.80
2022-10-28T09:00:28.143Z,20.80
2022-10-28T09:03:09.351Z,20.90
2022-10-28T09:05:39.886Z,20.90
2022-10-28T09:08:15.813Z,21.00
2022-10-28T09:11:00.869Z,21.00
2022-10-28T09:13:38.855Z,21.10
2022-10-28T09:16:16.074Z,21.10
2022-10-28T09:18:53.075Z,21.10
2022-10-28T09:21:31.196Z,21.20
2022-10-28T09:24:01.804Z,21.20
2022-10-28T09:26:38.691Z,21.20
2022-10-28T09:29:20.756Z,21.20
2022-10-28T09:31:51.914Z,21.20
2022-10-28T09:34:26.759Z,21.10
2022-10-28T09:36:59.673Z,21.10
2022-10-28T09:39:31.707Z,21.10
2022-10-28T09:42:01.889Z,21.10
2022-10-28T09:44:39.730Z,21.20
2022-10-28T09:47:17.057Z,21.10
2022-10-28T09:49:46.427Z,21.10
2022-10-28T09:52:22.451Z,21.20
2022-10-28T09:54:52.746Z,21.20
2022-10-28T09:57:21.649Z,21.20
2022-10-28T09:59:49.660Z,21.20
2022-10-28T10:02:30.550Z,21.20
2022-10-28T10:04:59.648Z,21.20
2022-10-28T10:07:34.521Z,21.20
2022-10-28T10:10:05.922Z,21.20
2022-10-28T10:12:34.901Z,21.20
2022-10-28T10:15:06.149Z,21.20
2022-10-28T10:17:40.099Z,21.20
2022-10-28T10:20:10.306Z,21.20
2022-10-28T10:22:40.705Z,21.20
2022-10-28T10:25:26.225Z,21.20
2022-10-28T10:27:57.509Z,21.20
2022-10-28T10:30:27.800Z,21.20
2022-10-28T10:32:56.156Z,21.20
2022-10-28T10:35:29.318Z,21.20
2022-10-28T10:38:01.675Z,21.20
2022-10-28T10:40:32.096Z,21.20
2022-10-28T10:43:24.825Z,21.20
2022-10-28T10:46:02.336Z,21.30
2022-10-28T10:48:32.235Z,21.30
2022-10-28T10:51:05.878Z,21.30
2022-10-28T10:53:36.370Z,21.30
2022-10-28T10:56:06.235Z,21.30
2022-10-28T10:58:36.624Z,21.20
2022-10-28T11:01:07.266Z,21.20
2022-10-28T11:03:38.782Z,21.20
2022-10-28T11:06:23.015Z,21.20
2022-10-28T11:08:57.150Z,21.30
2022-10-28T11:11:34.217Z,21.30
2022-10-28T11:14:08.597Z,21.20
2022-10-28T11:16:49.963Z,21.30
2022-10-28T11:19:22.943Z,21.30
2022-10-28T11:22:03.255Z,21.20
2022-10-28T11:25:19.437Z,21.20
2022-10-28T11:28:03.967Z,21.20
2022-10-28T11:30:41.895Z,21.20
2022-10-28T11:33:29.394Z,21.20
2022-10-28T11:36:04.648Z,21.30
2022-10-28T11:38:56.002Z,21.20
2022-10-28T11:41:34.702Z,21.30
2022-10-28T11:44:06.385Z,21.30
2022-10-28T11:46:45.820Z,21.30
2022-10-28T11:49:59.006Z,21.30
2022-10-28T11:52:45.340Z,21.30
2022-10-28T11:55:23.172Z,21.30
2022-10-28T11:58:05.110Z,21.30
2022-10-28T12:00:46.058Z,21.30
2022-10-28T12:03:32.683Z,21.30
2022-10-28T12:06:10.684Z,21.30
2022-10-28T12:08:52.480Z,21.30
2022-10-28T12:11:32.046Z,21.30
2022-10-28T12:14:08.265Z,21.30
2022-10-28T12:16:44.792Z,21.30
2022-10-28T12:19:18.227Z,21.30
2022-10-28T12:21:52.407Z,21.30
2022-10-28T12:24:24.192Z,21.30
2022-10-28T12:26:55.620Z,21.30
2022-10-28T12:29:28.750Z,21.30
2022-10-28T12:32:01.099Z,21.40
2022-10-28T12:37:12.524Z,21.30
2022-10-28T12:39:45.151Z,21.30
2022-10-28T12:42:20.206Z,21.30
2022-10-28T12:44:52.953Z,21.20
2022-10-28T12:47:28.619Z,21.30
2022-10-28T12:50:05.251Z,21.20
2022-10-28T12:52:40.369Z,21.20
2022-10-28T12:55:22.064Z,21.20
2022-10-28T12:57:55.929Z,21.20
2022-10-28T13:00:29.610Z,21.20
2022-10-28T13:03:03.083Z,21.20
2022-10-28T13:05:38.548Z,21.20
2022-10-28T13:08:43.894Z,21.20
2022-10-28T13:11:48.751Z,21.20
2022-10-28T13:14:32.203Z,21.20
2022-10-28T13:17:20.235Z,21.20
2022-10-28T13:19:59.651Z,21.20
2022-10-28T13:22:56.586Z,21.20
2022-10-28T13:25:48.429Z,21.20
2022-10-28T13:28:18.979Z,21.20
2022-10-28T13:30:58.657Z,21.20
2022-10-28T13:33:29.713Z,21.20
2022-10-28T13:36:11.755Z,21.20
2022-10-28T13:38:41.082Z,21.20
2022-10-28T13:41:26.271Z,21.30
2022-10-28T13:44:22.729Z,21.30
2022-10-28T13:47:04.764Z,21.30
2022-10-28T13:49:35.203Z,21.30
2022-10-28T13:52:05.501Z,21.30
2022-10-28T13:54:52.384Z,21.30
2022-10-28T13:57:27.175Z,21.30
2022-10-28T13:59:58.383Z,21.30
2022-10-28T14:02:35.684Z,21.40
2022-10-28T14:05:12.210Z,21.40
2022-10-28T14:07:51.693Z,21.40
2022-10-28T14:10:25.893Z,21.30
2022-10-28T14:12:56.914Z,21.30
2022-10-28T14:15:27.732Z,21.30
2022-10-28T14:18:09.933Z,21.40
2022-10-28T14:20:58.960Z,21.40
2022-10-28T14:24:07.768Z,21.40
2022-10-28T14:27:15.601Z,21.40
2022-10-28T14:29:48.483Z,21.40
2022-10-28T14:32:42.854Z,21.40
2022-10-28T14:35:39.664Z,21.30
2022-10-28T14:38:48.440Z,21.40
2022-10-28T14:41:38.631Z,21.40
2022-10-28T14:44:15.643Z,21.40
2022-10-28T14:47:00.413Z,21.40
2022-10-28T14:49:31.418Z,21.40
2022-10-28T14:52:05.912Z,21.40
2022-10-28T14:54:40.867Z,21.40
2022-10-28T14:57:09.436Z,21.40
2022-10-28T14:59:39.371Z,21.40
2022-10-28T15:02:15.172Z,21.40
2022-10-28T15:04:45.617Z,21.40
2022-10-28T15:07:15.373Z,21.40
2022-10-28T15:09:48.719Z,21.40
2022-10-28T15:12:18.682Z,21.50
2022-10-28T15:14:50.681Z,21.50
2022-10-28T15:17:20.379Z,21.60
2022-10-28T15:19:50.813Z,21.60
2022-10-28T15:22:21.594Z,21.60
2022-10-28T15:24:58.968Z,21.50
2022-10-28T15:27:28.919Z,21.50
2022-10-28T15:29:57.814Z,21.50
2022-10-28T15:32:29.454Z,21.50
2022-10-28T15:34:57.560Z,21.50
2022-10-28T15:37:27.537Z,21.50
2022-10-28T15:40:13.422Z,21.50
2022-10-28T15:42:45.677Z,21.40
2022-10-28T15:45:19.603Z,21.40
2022-10-28T15:47:48.341Z,21.40
2022-10-28T15:50:26.933Z,21.40
2022-10-28T15:52:57.466Z,21.50
2022-10-28T15:55:41.708Z,21.50
2022-10-28T15:58:35.529Z,21.50
2022-10-28T16:01:03.525Z,21.50
2022-10-28T16:03:42.960Z,21.50
2022-10-28T16:06:23.083Z,21.50
2022-10-28T16:09:01.135Z,21.50
2022-10-28T16:11:31.945Z,21.50
2022-10-28T16:14:01.164Z,21.50
2022-10-28T16:16:32.523Z,21.50
2022-10-28T16:19:07.312Z,21.50
2022-10-28T16:21:36.866Z,21.50
2022-10-28T16:24:05.121Z,21.40
2022-10-28T16:26:34.318Z,21.50
2022-10-28T16:29:02.228Z,21.40
2022-10-28T16:31:31.852Z,21.40
2022-10-28T16:34:00.182Z,21.40
2022-10-28T16:36:28.800Z,21.40
2022-10-28T16:38:56.712Z,21.40
2022-10-28T16:41:25.307Z,21.40
2022-10-28T16:43:55.767Z,21.40
2022-10-28T16:46:23.799Z,21.40
2022-10-28T16:48:51.656Z,21.40
2022-10-28T16:51:19.720Z,21.40
2022-10-28T16:53:49.568Z,21.40
2022-10-28T16:56:18.469Z,21.40
2022-10-28T16:58:46.750Z,21.40
2022-10-28T17:01:21.063Z,21.40
2022-10-28T17:03:49.219Z,21.40
2022-10-28T17:06:17.095Z,21.40
2022-10-28T17:11:32.904Z,21.40
2022-10-28T17:14:00.795Z,21.40
2022-10-28T17:16:30.012Z,21.40
2022-10-28T17:18:57.948Z,21.40
2022-10-28T17:21:25.863Z,21.40
2022-10-28T17:23:53.747Z,21.40
2022-10-28T17:26:21.612Z,21.40
2022-10-28T17:28:52.216Z,21.40
2022-10-28T17:31:23.862Z,21.40
2022-10-28T17:33:55.676Z,21.40
2022-10-28T17:36:24.199Z,21.40
2022-10-28T17:38:52.086Z,21.40
2022-10-28T17:41:20.314Z,21.40
2022-10-28T17:43:48.199Z,21.40
2022-10-28T17:46:16.049Z,21.40
2022-10-28T17:48:43.924Z,21.40
2022-10-28T17:51:13.726Z,21.40
2022-10-28T17:53:41.634Z,21.40
2022-10-28T17:56:10.302Z,21.40
2022-10-28T17:58:38.211Z,21.40
2022-10-28T18:01:07.649Z,21.40
2022-10-28T18:03:38.933Z,21.40
2022-10-28T18:06:09.302Z,21.40
2022-10-28T18:08:40.426Z,21.40
2022-10-28T18:11:09.863Z,21.40
2022-10-28T18:13:39.299Z,21.40
2022-10-28T18:16:08.987Z,21.40
2022-10-28T18:18:41.142Z,21.40
2022-10-28T18:21:11.371Z,21.40
2022-10-28T18:23:41.745Z,21.40
2022-10-28T18:26:11.961Z,21.40
2022-10-28T18:28:41.117Z,21.30
2022-10-28T18:31:12.606Z,21.30
2022-10-28T18:33:40.968Z,21.30
2022-10-28T18:36:12.339Z,21.30
2022-10-28T18:38:41.960Z,21.30
2022-10-28T18:41:12.015Z,21.30
2022-10-28T18:43:40.257Z,21.30
2022-10-28T18:46:12.335Z,21.40
2022-10-28T18:48:40.932Z,21.40
2022-10-28T18:51:12.492Z,21.30
2022-10-28T18:53:43.478Z,21.30
2022-10-28T18:56:13.317Z,21.40
2022-10-28T18:58:41.286Z,21.40
2022-10-28T19:01:12.020Z,21.30
2022-10-28T19:03:40.710Z,21.30
2022-10-28T19:06:10.856Z,21.40
2022-10-28T19:08:39.443Z,21.40
2022-10-28T19:11:10.723Z,21.40
2022-10-28T19:13:40.244Z,21.40
2022-10-28T19:16:09.342Z,21.40
2022-10-28T19:18:38.321Z,21.40
2022-10-28T19:21:08.280Z,21.30
2022-10-28T19:23:36.347Z,21.30
2022-10-28T19:26:04.874Z,21.40
2022-10-28T19:28:38.371Z,21.40
2022-10-28T19:31:09.147Z,21.40
2022-10-28T19:33:38.372Z,21.40
2022-10-28T19:36:08.211Z,21.40
2022-10-28T19:38:37.872Z,21.40
2022-10-28T19:41:08.172Z,21.40
2022-10-28T19:43:37.746Z,21.40
2022-10-28T19:46:11.329Z,21.40
2022-10-28T19:48:40.386Z,21.40
2022-10-28T19:51:08.748Z,21.40
2022-10-28T19:53:36.676Z,21.40
2022-10-28T19:56:05.337Z,21.40
2022-10-28T19:58:34.811Z,21.40
2022-10-28T20:01:05.783Z,21.40
2022-10-28T20:03:35.053Z,21.40
2022-10-28T20:06:07.045Z,21.40
2022-10-28T20:08:36.211Z,21.40
2022-10-28T20:11:05.926Z,21.40
2022-10-28T20:13:34.600Z,21.40
2022-10-28T20:16:05.724Z,21.40
2022-10-28T20:18:34.409Z,21.40
2022-10-28T20:21:06.833Z,21.40
2022-10-28T20:23:35.783Z,21.40
2022-10-28T20:26:05.482Z,21.30
2022-10-28T20:28:33.758Z,21.40
2022-10-28T20:31:04.501Z,21.40
2022-10-28T20:33:32.879Z,21.30
2022-10-28T20:36:00.890Z,21.30
2022-10-28T20:38:29.276Z,21.40
2022-10-28T20:40:58.943Z,21.40
2022-10-28T20:43:29.147Z,21.40
2022-10-28T20:45:58.656Z,21.40
2022-10-28T20:48:29.070Z,21.40
2022-10-28T20:50:58.409Z,21.40
2022-10-28T20:53:27.875Z,21.40
2022-10-28T20:55:57.357Z,21.40
2022-10-28T20:58:28.159Z,21.30
2022-10-28T21:01:01.977Z,21.40
2022-10-28T21:03:31.355Z,21.40
2022-10-28T21:05:59.468Z,21.40
2022-10-28T21:08:27.377Z,21.40
2022-10-28T21:10:55.275Z,21.40
2022-10-28T21:13:23.160Z,21.40
2022-10-28T21:15:56.392Z,21.30
2022-10-28T21:18:25.992Z,21.30
2022-10-28T21:20:58.955Z,21.30
2022-10-28T21:23:27.206Z,21.30
2022-10-28T21:25:55.785Z,21.30
2022-10-28T21:28:24.194Z,21.30
2022-10-28T21:30:52.083Z,21.30
2022-10-28T21:33:20.017Z,21.30
2022-10-28T21:35:58.211Z,21.20
2022-10-28T21:38:26.968Z,21.20
2022-10-28T21:41:02.428Z,21.20
2022-10-28T21:43:32.589Z,21.20
2022-10-28T21:46:00.515Z,21.20
2022-10-28T21:48:28.931Z,21.20
2022-10-28T21:50:59.827Z,21.20
2022-10-28T21:53:28.516Z,21.20
2022-10-28T21:56:03.226Z,21.20
2022-10-28T21:58:31.165Z,21.20
2022-10-28T22:01:04.046Z,21.20
2022-10-28T22:03:31.931Z,21.20
2022-10-28T22:06:01.325Z,21.20
2022-10-28T22:08:29.232Z,21.20
2022-10-28T22:11:01.560Z,21.20
2022-10-28T22:13:29.884Z,21.20
2022-10-28T22:16:02.217Z,21.10
2022-10-28T22:18:31.196Z,21.20
2022-10-28T22:21:06.459Z,21.20
2022-10-28T22:23:34.543Z,21.20
2022-10-28T22:26:02.965Z,21.20
2022-10-28T22:28:31.281Z,21.10
2022-10-28T22:31:00.043Z,21.10
2022-10-28T22:33:28.076Z,21.10
2022-10-28T22:35:59.039Z,21.10
2022-10-28T22:38:29.106Z,21.10
2022-10-28T22:41:03.729Z,21.10
2022-10-28T22:43:31.991Z,21.10
2022-10-28T22:46:00.640Z,21.10
2022-10-28T22:48:29.635Z,21.10
2022-10-28T22:50:57.896Z,21.10
2022-10-28T22:53:25.880Z,21.10
2022-10-28T22:55:55.592Z,21.10
2022-10-28T22:58:24.705Z,21.10
2022-10-28T23:00:52.650Z,21.10
2022-10-28T23:03:20.818Z,21.10
2022-10-28T23:05:48.739Z,21.10
2022-10-28T23:08:17.366Z,21.10
2022-10-28T23:10:45.283Z,21.10
2022-10-28T23:13:14.566Z,21.10
2022-10-28T23:15:42.471Z,21.10
2022-10-28T23:18:10.345Z,21.00
2022-10-28T23:20:38.209Z,21.10
2022-10-28T23:23:06.050Z,21.00
2022-10-28T23:25:33.949Z,21.10
2022-10-28T23:28:05.148Z,21.00
2022-10-28T23:30:34.658Z,21.00
2022-10-28T23:33:02.552Z,21.00
2022-10-28T23:35:30.425Z,21.00
2022-10-28T23:38:00.278Z,21.00
2022-10-28T23:40:28.173Z,21.00
2022-10-28T23:42:56.360Z,21.00
2022-10-28T23:45:24.464Z,21.00
2022-10-28T23:47:53.696Z,21.00
2022-10-28T23:50:21.568Z,21.00
2022-10-28T23:52:53.672Z,20.90
2022-10-28T23:55:21.810Z,21.00
2022-10-28T23:57:49.694Z,21.00
